Lake Tapps, Washington
Current Conditions -  °F | °C
As of 11:58 AM on Thursday 30 Oct 2014 (Local Time) from KTCM Reporting Station
Light Rain Light Rain  
Wind Chill: 55°   Ceiling: 8000
Heat Index: 55°   Visibility: 4mi
Dew Point: 55°   Wind: 6mph
Humidity: 99%   Direction: 270°W
Pressure: 29.84"   Gusts: NA
Location:  47.1874°N, 122.164°W
Report Text: KTCM 301858Z AUTO 27005KT 4SM -RA BR BKN080 OVC090 13/13 A2984 RMK AO2 RAB1809 CIG 060 RWY34 SLP109 P0001 T01260125
Loading
Personal Weather Stations






























Interactive Weather Map
Tropical Storm Tracking
New forecast layout! Learn more

10-Day Weather Forecast

Advertisements
Track Severe Weather on mobile